Seilcrest Acres, Ohio
Current Conditions -  °F | °C
As of 4:53 PM on Monday 20 Oct 2014 (Local Time) from KLUK Reporting Station
Overcast Overcast  
Wind Chill: 61°   Ceiling: 4200
Heat Index: 61°   Visibility: 10mi
Dew Point: 52°   Wind: 8mph
Humidity: 72%   Direction: 190°S
Pressure: 29.87"   Gusts: NA
Location:  39.23°N, 84.2394°W
Report Text: KLUK 202053Z 19007KT 10SM BKN042 OVC048 16/11 A2987 RMK AO2 RAB03E19 SLP115 P0001 60001 T01610111 56010
Loading
Personal Weather Stations






























Interactive Weather Map
Tropical Storm Tracking
New forecast layout! Learn more

10-Day Weather Forecast

Advertisements
Track Severe Weather on mobile